Nearby METAR Reports

 

EDNY - Friedrichshafen, Germany
Distance from station: ONO 32km
aktuell: 21.01.2018 05:20
geschlossene Wolkendecke
geschlossene Wolkendecke
 Wind von WNW
Wind: WNW 7 km/h
Temperatur: 4°C
gefühlte Temperatur: 2°C
Taupunkt: 1°C
Luftfeuchte: 81%
Luftdruck: 1007 hPa
Clouds: geschlossene Wolkendecke
Visibility: 10 km
Cloud details: Few Clouds 732 m
geschlossene Wolkendecke 2347 m
2018/01/21 04:20 EDNY 210420Z AUTO 29004KT 220V020 9999 FEW024 OVC077 04/01 Q1007
LSZR - Rheineck/Altenrh, Switzerland
Distance from station: OSO 37km
aktuell: 21.01.2018 05:20
teilweise bewölkt
teilweise bewölkt
 Wind von W
Wind: W 7 km/h
Temperatur: 6°C
gefühlte Temperatur: 4°C
Taupunkt: 2°C
Luftfeuchte: 76%
Luftdruck: 1007 hPa
Clouds: teilweise bewölkt
Visibility: 10 km
Cloud details: geschlossene Wolkendecke 1524 m
teilweise bewölkt 2134 m
2018/01/21 04:20 LSZR 210420Z AUTO 26004KT 220V300 9999 OVC050 SCT070 06/02 Q1007
LSMD - Dubendorf, Switzerland
Distance from station: SW 40km
aktuell: 21.01.2018 04:50
geschlossene Wolkendecke
geschlossene Wolkendecke
 Wind von WNW
Wind: WNW 13 km/h
Temperatur: 6°C
gefühlte Temperatur: 3°C
Taupunkt: 4°C
Luftfeuchte: 87%
Luftdruck: 1007 hPa
Clouds: geschlossene Wolkendecke
Visibility: 16 miles
Cloud details: Few Clouds 701 m
teilweise bewölkt 1402 m
geschlossene Wolkendecke 1676 m
2018/01/21 03:50 LSMD 210350Z AUTO 30007KT 9999NDV FEW023 SCT046 OVC055 06/04 Q1007 RMK
 
LSZH - Zurich-Kloten (a, Switzerland
Distance from station: WSW 44km
aktuell: 21.01.2018 05:20
Nearby showers, teilweise bewölkt
Nearby showers, teilweise bewölkt
 Wind von W
Wind: W 11 km/h
Temperatur: 5°C
gefühlte Temperatur: 2°C
Taupunkt: 3°C
Luftfeuchte: 87%
Luftdruck: 1007 hPa
Zusammenfassung: Nearby Showers
Clouds: teilweise bewölkt
Visibility: 10 km
Cloud details: Few Clouds 366 m
teilweise bewölkt 1981 m
2018/01/21 04:20 LSZH 210420Z 27006KT 9999 VCSH FEW012 SCT065 05/03 Q1007 NOSIG
LOIH - Hohenems-Dornbir, Austria
Distance from station: OSO 51km
aktuell: 31.10.2016 17:00
NOT Current
geschlossene Wolkendecke
geschlossene Wolkendecke
 Wind von calm
Wind: Windstill
Temperatur: 10°C
Taupunkt: 9°C
Luftfeuchte: 94%
Luftdruck: 1026 hPa
Clouds: geschlossene Wolkendecke
Cloud details: geschlossene Wolkendecke 305 m
2016/10/31 16:00 LOIH 311600Z 00000KT 10KM OVC010ST 10/09 Q1026 RMK OVC
LSME - Emmen, Switzerland
Distance from station: SW 82km
aktuell: 21.01.2018 04:50
Regen, geschlossene Wolkendecke
Regen, geschlossene Wolkendecke
 Wind von W
Wind: W 13 km/h
Temperatur: 7°C
gefühlte Temperatur: 5°C
Taupunkt: 5°C
Luftfeuchte: 87%
Luftdruck: 1008 hPa
Zusammenfassung: Regen
Clouds: geschlossene Wolkendecke
Visibility: 13 miles
Cloud details: teilweise bewölkt 792 m
stark bewölkt 914 m
geschlossene Wolkendecke 2408 m
2018/01/21 03:50 LSME 210350Z AUTO 28007KT 230V350 8000NDV RA SCT026 BKN030 OVC079 07/05 Q1008 RMK
 
LSZC - Buochs, Switzerland
Distance from station: SW 89km
aktuell: 21.01.2018 05:20
Regen, teilweise bewölkt
Regen, teilweise bewölkt
 Wind von SSO
Wind: SSO 15 km/h, Windböen: 33 km/h
Temperatur: 8°C
gefühlte Temperatur: 5°C
Taupunkt: 3°C
Luftfeuchte: 71%
Luftdruck: 1008 hPa
Zusammenfassung: Regen
Clouds: teilweise bewölkt
Visibility: 10 km
Cloud details: stark bewölkt 640 m
teilweise bewölkt 945 m
2018/01/21 04:20 LSZC 210420Z AUTO 15008G18KT 090V200 9999 RA BKN021 SCT031 08/03 Q1008
ETHL - Laupheim (ger-Ar, Germany
Distance from station: NO 92km
aktuell: 21.01.2018 05:20
teilweise bewölkt
teilweise bewölkt
 Wind von varies
Wind: varies 6 km/h
Temperatur: 1°C
Taupunkt: 0°C
Luftfeuchte: 93%
Luftdruck: 1005 hPa
Clouds: teilweise bewölkt
Visibility: 10 km
Cloud details: teilweise bewölkt 396 m
2018/01/21 04:20 ETHL 210420Z VRB03KT 9999 SCT013 01/M00 Q1005 BLU+
EDJA - Memmingen Allgau, Germany
Distance from station: ONO 95km
aktuell: 20.01.2018 22:20
NOT Current
sehr leichter Niederschlag, Schnee, stark bewölkt
sehr leichter Niederschlag, Schnee, stark bewölkt
 Wind von SW
Wind: SW 20 km/h
Temperatur: 1°C
gefühlte Temperatur: -4°C
Taupunkt: 1°C
Luftfeuchte: 100%
Luftdruck: 997 hPa
Zusammenfassung: sehr leichter Niederschlag, Schnee
Clouds: stark bewölkt
Visibility: 9 km
Cloud details: stark bewölkt 152 m
2018/01/20 21:20 EDJA 202120Z 23011KT 9000 -RASN BKN005 01/01 Q0997
 
LSMA - Alpnach, Switzerland
Distance from station: SW 95km
aktuell: 21.01.2018 04:50
sehr leichter Niederschlag, geschlossene Wolkendecke
sehr leichter Niederschlag, geschlossene Wolkendecke
 Wind von SSO
Wind: SSO 11 km/h
Temperatur: 8°C
gefühlte Temperatur: 6°C
Taupunkt: 4°C
Luftfeuchte: 76%
Luftdruck: 1007 hPa
Zusammenfassung: sehr leichter Niederschlag
Clouds: geschlossene Wolkendecke
Visibility: 16 miles
Cloud details: Few Clouds 975 m
geschlossene Wolkendecke 1189 m
2018/01/21 03:50 LSMA 210350Z AUTO 16006KT 110V210 9999NDV -RA FEW032 OVC039 08/04 Q1007 RMK